createdAt,value
2023-04-03T00:02:06.512Z,0.33
2023-04-03T00:04:35.771Z,0.67
2023-04-03T00:07:02.168Z,0.33
2023-04-03T00:09:28.484Z,0.33
2023-04-03T00:14:41.778Z,0.67
2023-04-03T00:17:10.912Z,1.00
2023-04-03T00:19:40.053Z,1.00
2023-04-03T00:22:06.383Z,0.33
2023-04-03T00:24:35.500Z,1.33
2023-04-03T00:29:58.328Z,0.67
2023-04-03T00:32:27.467Z,0.00
2023-04-03T00:34:53.768Z,1.00
2023-04-03T00:37:20.194Z,2.00
2023-04-03T00:39:46.487Z,0.00
2023-04-03T00:44:59.730Z,0.50
2023-04-03T00:47:28.833Z,0.00
2023-04-03T00:49:57.944Z,0.67
2023-04-03T00:52:24.258Z,2.00
2023-04-03T00:54:53.439Z,0.00
2023-04-03T01:00:03.662Z,1.00
2023-04-03T01:02:32.863Z,0.67
2023-04-03T01:04:59.220Z,0.00
2023-04-03T01:07:28.355Z,1.00
2023-04-03T01:09:54.672Z,0.33
2023-04-03T01:12:21.006Z,0.33
2023-04-03T01:14:47.358Z,0.00
2023-04-03T01:17:16.469Z,0.33
2023-04-03T01:19:45.617Z,0.67
2023-04-03T01:22:11.961Z,0.00
2023-04-03T01:24:38.256Z,0.33
2023-04-03T01:27:07.374Z,0.00
2023-04-03T01:29:36.467Z,0.00
2023-04-03T01:32:02.766Z,0.00
2023-04-03T01:34:31.895Z,0.00
2023-04-03T01:37:01.009Z,0.33
2023-04-03T01:39:30.103Z,0.00
2023-04-03T01:41:56.475Z,0.00
2023-04-03T01:44:22.793Z,0.00
2023-04-03T01:46:49.086Z,0.00
2023-04-03T01:49:18.200Z,0.33
2023-04-03T01:51:44.517Z,0.00
2023-04-03T01:54:10.846Z,0.00
2023-04-03T01:56:39.972Z,0.00
2023-04-03T01:59:06.303Z,0.00
2023-04-03T02:01:35.465Z,0.00
2023-04-03T02:04:04.676Z,0.00
2023-04-03T02:06:33.815Z,0.00
2023-04-03T02:09:02.928Z,0.00
2023-04-03T02:11:32.102Z,0.00
2023-04-03T02:14:01.201Z,0.00
2023-04-03T02:16:30.314Z,0.00
2023-04-03T02:18:59.453Z,0.00
2023-04-03T02:21:28.551Z,0.00
2023-04-03T02:23:57.653Z,0.17
2023-04-03T02:26:26.770Z,0.00
2023-04-03T02:28:53.078Z,0.33
2023-04-03T02:31:22.223Z,0.00
2023-04-03T02:33:51.436Z,0.50
2023-04-03T02:36:17.797Z,1.00
2023-04-03T02:38:46.896Z,0.00
2023-04-03T02:41:16.029Z,0.00
2023-04-03T02:43:42.329Z,0.00
2023-04-03T02:49:05.533Z,0.00
2023-04-03T02:51:34.662Z,0.00
2023-04-03T02:54:03.859Z,0.00
2023-04-03T02:56:32.972Z,0.00
2023-04-03T02:58:59.279Z,0.33
2023-04-03T03:04:22.108Z,0.00
2023-04-03T03:06:51.268Z,0.17
2023-04-03T03:09:17.606Z,0.00
2023-04-03T03:11:46.714Z,0.00
2023-04-03T03:14:13.077Z,0.00
2023-04-03T03:19:26.235Z,0.00
2023-04-03T03:21:55.332Z,0.00
2023-04-03T03:24:24.431Z,0.00
2023-04-03T03:26:53.596Z,0.00
2023-04-03T03:29:19.895Z,0.00
2023-04-03T03:34:32.932Z,0.00
2023-04-03T03:36:59.242Z,0.00
2023-04-03T03:39:28.401Z,0.00
2023-04-03T03:41:56.682Z,12.40
2023-04-03T03:44:23.177Z,14.00
2023-04-03T03:49:44.607Z,14.00
2023-04-03T03:52:11.118Z,19.50
2023-04-03T03:54:38.493Z,17.00
2023-04-03T03:57:05.824Z,16.33
2023-04-03T03:59:33.136Z,14.00
2023-04-03T04:04:47.257Z,17.00
2023-04-03T04:07:14.509Z,16.33
2023-04-03T04:09:41.098Z,13.50
2023-04-03T04:12:07.460Z,6.33
2023-04-03T04:14:33.863Z,10.00
2023-04-03T04:19:54.183Z,12.00
2023-04-03T04:22:20.640Z,18.50
2023-04-03T04:24:47.093Z,13.00
2023-04-03T04:27:13.498Z,9.50
2023-04-03T04:29:39.865Z,9.00
2023-04-03T04:34:50.379Z,8.00
2023-04-03T04:37:17.761Z,20.00
2023-04-03T04:39:44.443Z,19.00
2023-04-03T04:42:11.696Z,13.00
2023-04-03T04:44:39.993Z,13.60
2023-04-03T04:50:00.533Z,20.00
2023-04-03T04:52:28.029Z,26.00
2023-04-03T04:54:54.550Z,10.00
2023-04-03T04:57:21.336Z,12.00
2023-04-03T04:59:48.070Z,12.50
2023-04-03T05:04:58.941Z,32.50
2023-04-03T05:07:25.403Z,15.00
2023-04-03T05:09:51.884Z,12.00
2023-04-03T05:12:18.435Z,12.50
2023-04-03T05:14:47.619Z,10.67
2023-04-03T05:20:00.114Z,17.00
2023-04-03T05:22:26.586Z,16.00
2023-04-03T05:24:53.112Z,13.00
2023-04-03T05:27:19.605Z,13.00
2023-04-03T05:29:48.725Z,8.50
2023-04-03T05:35:10.765Z,7.33
2023-04-03T05:37:37.142Z,9.00
2023-04-03T05:40:03.613Z,9.67
2023-04-03T05:42:30.081Z,21.50
2023-04-03T05:44:57.578Z,29.00
2023-04-03T05:50:18.820Z,17.00
2023-04-03T05:52:46.200Z,19.67
2023-04-03T05:55:12.604Z,14.50
2023-04-03T05:57:40.934Z,14.80
2023-04-03T06:00:08.337Z,21.67
2023-04-03T06:05:19.745Z,16.33
2023-04-03T06:07:46.973Z,13.00
2023-04-03T06:10:14.216Z,12.00
2023-04-03T06:12:40.681Z,9.00
2023-04-03T06:15:07.070Z,9.00
2023-04-03T06:20:29.297Z,9.00
2023-04-03T06:22:55.646Z,8.67
2023-04-03T06:25:21.998Z,6.00
2023-04-03T06:27:48.344Z,6.33
2023-04-03T06:30:15.582Z,7.00
2023-04-03T06:32:42.011Z,6.67
2023-04-03T06:35:08.366Z,5.33
2023-04-03T06:37:34.696Z,5.67
2023-04-03T06:40:01.014Z,5.00
2023-04-03T06:42:27.338Z,6.33
2023-04-03T06:44:53.834Z,29.50
2023-04-03T06:47:21.231Z,18.33
2023-04-03T06:49:47.731Z,12.00
2023-04-03T06:52:14.246Z,11.00
2023-04-03T06:54:40.601Z,8.33
2023-04-03T06:57:07.046Z,8.33
2023-04-03T06:59:33.421Z,8.67
2023-04-03T07:01:59.862Z,6.00
2023-04-03T07:04:26.317Z,4.67
2023-04-03T07:06:52.722Z,6.67
2023-04-03T07:09:19.954Z,20.25
2023-04-03T07:11:46.418Z,14.00
2023-04-03T07:14:14.770Z,14.00
2023-04-03T07:16:42.741Z,10.00
2023-04-03T07:19:10.196Z,8.25
2023-04-03T07:21:36.531Z,5.33
2023-04-03T07:24:03.754Z,6.50
2023-04-03T07:26:30.168Z,6.00
2023-04-03T07:28:56.542Z,4.33
2023-04-03T07:31:22.902Z,3.67
2023-04-03T07:33:49.350Z,4.00
2023-04-03T07:38:59.709Z,2.00
2023-04-03T07:41:26.039Z,3.00
2023-04-03T07:43:52.383Z,2.00
2023-04-03T07:46:18.810Z,3.33
2023-04-03T07:48:45.158Z,2.67
2023-04-03T07:54:05.549Z,2.00
2023-04-03T07:56:31.966Z,1.67
2023-04-03T07:58:58.340Z,2.00
2023-04-03T08:01:24.721Z,1.67
2023-04-03T08:03:51.115Z,1.00
2023-04-03T08:09:01.525Z,2.00
2023-04-03T08:11:27.875Z,3.00
2023-04-03T08:13:54.221Z,2.00
2023-04-03T08:16:20.561Z,2.00
2023-04-03T08:18:46.981Z,2.00
2023-04-03T08:23:57.531Z,2.67
2023-04-03T08:26:23.889Z,2.67
2023-04-03T08:28:50.189Z,1.67
2023-04-03T08:31:16.643Z,2.33
2023-04-03T08:33:45.868Z,1.33
2023-04-03T08:39:06.057Z,2.00
2023-04-03T08:41:32.377Z,2.00
2023-04-03T08:43:58.712Z,1.67
2023-04-03T08:46:27.892Z,1.00
2023-04-03T08:48:54.239Z,1.33
2023-04-03T08:54:14.592Z,1.00
2023-04-03T08:56:43.698Z,1.00
2023-04-03T08:59:10.014Z,1.00
2023-04-03T09:01:39.238Z,1.00
2023-04-03T09:04:05.706Z,1.00
2023-04-03T09:06:34.874Z,1.33
2023-04-03T09:09:01.191Z,1.00
2023-04-03T09:11:30.319Z,0.33
2023-04-03T09:13:59.452Z,0.00
2023-04-03T09:16:28.588Z,0.83
2023-04-03T09:18:57.751Z,1.00
2023-04-03T09:24:08.394Z,11.50
2023-04-03T09:26:34.791Z,8.00
2023-04-03T09:29:01.176Z,2.33
2023-04-03T09:31:27.608Z,3.00
2023-04-03T09:33:54.102Z,2.00
2023-04-03T09:39:06.901Z,8.50
2023-04-03T09:41:33.216Z,2.00
2023-04-03T09:43:59.555Z,2.00
2023-04-03T09:46:25.921Z,1.00
2023-04-03T09:48:57.879Z,1.33
2023-04-03T09:54:18.804Z,1.00
2023-04-03T09:56:45.113Z,1.00
2023-04-03T09:59:11.467Z,1.00
2023-04-03T10:01:40.584Z,0.00
2023-04-03T10:04:06.974Z,2.33
2023-04-03T10:09:17.600Z,4.00
2023-04-03T10:11:43.978Z,3.00
2023-04-03T10:14:10.395Z,2.33
2023-04-03T10:16:36.761Z,2.00
2023-04-03T10:19:03.121Z,2.00
2023-04-03T10:21:30.411Z,11.67
2023-04-03T10:23:56.769Z,7.67
2023-04-03T10:26:23.108Z,3.33
2023-04-03T10:28:49.468Z,3.00
2023-04-03T10:31:15.842Z,0.33
2023-04-03T10:33:42.223Z,2.00
2023-04-03T10:36:08.563Z,1.00
2023-04-03T10:38:34.961Z,1.67
2023-04-03T10:41:01.382Z,12.50
2023-04-03T10:43:27.726Z,7.67
2023-04-03T10:45:54.087Z,5.00
2023-04-03T10:48:20.498Z,3.00
2023-04-03T10:50:46.817Z,2.33
2023-04-03T10:53:15.933Z,2.50
2023-04-03T10:55:42.315Z,2.00
2023-04-03T10:58:09.574Z,11.67
2023-04-03T11:00:36.287Z,12.00
2023-04-03T11:03:02.956Z,5.33
2023-04-03T11:05:29.327Z,4.33
2023-04-03T11:07:55.722Z,4.67
2023-04-03T11:10:22.083Z,5.67
2023-04-03T11:12:48.515Z,16.00
2023-04-03T11:15:14.939Z,11.00
2023-04-03T11:17:41.356Z,5.33
2023-04-03T11:20:07.771Z,7.00
2023-04-03T11:22:34.180Z,5.00
2023-04-03T11:25:00.539Z,4.00
2023-04-03T11:27:26.900Z,4.00
2023-04-03T11:29:53.256Z,3.00
2023-04-03T11:32:19.600Z,4.00
2023-04-03T11:34:45.934Z,3.00
2023-04-03T11:37:12.416Z,21.00
2023-04-03T11:42:34.630Z,12.40
2023-04-03T11:45:02.096Z,10.25
2023-04-03T11:47:29.336Z,9.00
2023-04-03T11:49:55.685Z,5.00
2023-04-03T11:52:22.109Z,5.00
2023-04-03T11:57:32.682Z,4.00
2023-04-03T11:59:59.102Z,3.00
2023-04-03T12:02:25.527Z,3.33
2023-04-03T12:04:51.849Z,3.00
2023-04-03T12:07:18.221Z,3.00
2023-04-03T12:12:28.567Z,2.00
2023-04-03T12:14:54.923Z,2.00
2023-04-03T12:17:21.309Z,2.00
2023-04-03T12:19:47.630Z,2.00
2023-04-03T12:22:13.974Z,2.00
2023-04-03T12:27:34.127Z,2.33
2023-04-03T12:30:00.495Z,1.67
2023-04-03T12:32:26.913Z,2.67
2023-04-03T12:34:53.412Z,3.00
2023-04-03T12:37:19.784Z,2.00
2023-04-03T12:42:30.080Z,2.00
2023-04-03T12:44:56.420Z,2.00
2023-04-03T12:47:22.806Z,1.67
2023-04-03T12:49:52.823Z,1.00
2023-04-03T12:52:19.334Z,1.33
2023-04-03T12:57:29.377Z,1.00
2023-04-03T12:59:55.697Z,3.00
2023-04-03T13:02:22.047Z,2.00
2023-04-03T13:04:48.382Z,2.00
2023-04-03T13:07:14.693Z,1.00
2023-04-03T13:12:35.970Z,2.00
2023-04-03T13:15:02.313Z,1.00
2023-04-03T13:17:28.684Z,2.00
2023-04-03T13:19:55.312Z,2.00
2023-04-03T13:22:21.687Z,2.00
2023-04-03T13:27:44.526Z,0.00
2023-04-03T13:30:10.826Z,2.00
2023-04-03T13:32:39.972Z,1.00
2023-04-03T13:35:17.841Z,0.00
2023-04-03T13:37:44.822Z,2.00
2023-04-03T13:43:05.103Z,7.00
2023-04-03T13:45:31.560Z,6.00
2023-04-03T13:47:57.993Z,10.00
2023-04-03T13:50:25.312Z,8.00
2023-04-03T13:52:51.674Z,5.33
2023-04-03T13:58:02.696Z,4.67
2023-04-03T14:00:29.062Z,5.33
2023-04-03T14:02:55.431Z,6.67
2023-04-03T14:05:21.844Z,14.00
2023-04-03T14:07:48.252Z,10.00
2023-04-03T14:10:14.728Z,21.50
2023-04-03T14:12:42.221Z,18.67
2023-04-03T14:15:09.541Z,17.33
2023-04-03T14:17:36.113Z,18.00
2023-04-03T14:20:03.521Z,25.33
2023-04-03T14:22:29.992Z,14.50
2023-04-03T14:24:56.524Z,14.50
2023-04-03T14:27:22.964Z,10.00
2023-04-03T14:29:49.338Z,7.67
2023-04-03T14:32:15.764Z,12.00
2023-04-03T14:34:45.694Z,13.86
2023-04-03T14:37:12.977Z,14.00
2023-04-03T14:39:39.403Z,12.00
2023-04-03T14:42:05.817Z,7.00
2023-04-03T14:44:32.164Z,5.00
2023-04-03T14:46:58.725Z,6.67
2023-04-03T14:49:25.212Z,4.67
2023-04-03T14:51:51.577Z,5.00
2023-04-03T14:54:18.106Z,2.67
2023-04-03T14:56:44.467Z,1.67
2023-04-03T14:59:10.822Z,2.00
2023-04-03T15:01:37.152Z,3.00
2023-04-03T15:04:03.655Z,16.00
2023-04-03T15:06:30.097Z,7.33
2023-04-03T15:08:56.568Z,4.67
2023-04-03T15:11:22.946Z,3.33
2023-04-03T15:13:49.273Z,1.67
2023-04-03T15:16:16.544Z,10.25
2023-04-03T15:18:44.917Z,12.00
2023-04-03T15:21:12.146Z,6.50
2023-04-03T15:23:38.485Z,5.67
2023-04-03T15:26:04.877Z,5.33
2023-04-03T15:31:25.147Z,3.67
2023-04-03T15:33:51.527Z,2.33
2023-04-03T15:36:33.293Z,2.67
2023-04-03T15:39:02.341Z,21.00
2023-04-03T15:41:29.849Z,18.33
2023-04-03T15:46:42.240Z,8.00
2023-04-03T15:49:08.777Z,4.33
2023-04-03T15:51:35.164Z,6.00
2023-04-03T15:54:01.525Z,5.00
2023-04-03T15:56:30.641Z,2.67
2023-04-03T16:01:50.637Z,2.67
2023-04-03T16:04:18.052Z,2.00
2023-04-03T16:06:45.782Z,1.67
2023-04-03T16:09:12.337Z,1.33
2023-04-03T16:11:38.764Z,2.00
2023-04-03T16:16:48.972Z,1.33
2023-04-03T16:19:15.610Z,1.33
2023-04-03T16:21:42.016Z,1.00
2023-04-03T16:24:08.476Z,12.50
2023-04-03T16:26:35.858Z,17.33
2023-04-03T16:31:56.122Z,6.67
2023-04-03T16:34:22.537Z,4.67
2023-04-03T16:36:48.913Z,5.00
2023-04-03T16:39:16.144Z,5.25
2023-04-03T16:41:42.656Z,10.50
2023-04-03T16:46:54.023Z,7.67
2023-04-03T16:49:20.522Z,5.00
2023-04-03T16:51:46.916Z,5.33
2023-04-03T16:54:14.330Z,22.00
2023-04-03T16:56:41.679Z,15.67
2023-04-03T17:01:53.996Z,8.50
2023-04-03T17:04:20.378Z,6.00
2023-04-03T17:06:46.756Z,6.33
2023-04-03T17:09:13.083Z,4.00
2023-04-03T17:11:39.517Z,11.50
2023-04-03T17:17:02.636Z,10.33
2023-04-03T17:19:29.036Z,8.00
2023-04-03T17:21:55.379Z,7.67
2023-04-03T17:24:22.117Z,7.67
2023-04-03T17:26:49.485Z,17.00
2023-04-03T17:32:01.720Z,5.50
2023-04-03T17:34:28.118Z,9.50
2023-04-03T17:36:55.363Z,8.75
2023-04-03T17:39:21.719Z,5.33
2023-04-03T17:41:48.136Z,5.67
2023-04-03T17:46:58.466Z,4.00
2023-04-03T17:49:24.809Z,2.33
2023-04-03T17:51:51.156Z,5.67
2023-04-03T17:54:18.489Z,20.33
2023-04-03T17:56:47.709Z,11.00
2023-04-03T18:02:08.124Z,7.67
2023-04-03T18:04:34.537Z,5.33
2023-04-03T18:07:00.915Z,7.00
2023-04-03T18:09:27.249Z,5.33
2023-04-03T18:11:53.610Z,5.00
2023-04-03T18:17:04.117Z,4.33
2023-04-03T18:19:32.422Z,12.40
2023-04-03T18:22:00.760Z,12.00
2023-04-03T18:24:28.008Z,10.25
2023-04-03T18:26:54.483Z,8.00
2023-04-03T18:32:04.990Z,6.00
2023-04-03T18:34:31.341Z,5.33
2023-04-03T18:36:57.681Z,4.33
2023-04-03T18:39:24.938Z,5.00
2023-04-03T18:41:53.285Z,5.00
2023-04-03T18:44:19.638Z,4.67
2023-04-03T18:46:46.013Z,3.33
2023-04-03T18:49:13.270Z,7.75
2023-04-03T18:51:40.645Z,19.00
2023-04-03T18:54:07.972Z,13.00
2023-04-03T18:56:36.251Z,10.00
2023-04-03T18:59:02.687Z,9.50
2023-04-03T19:01:29.213Z,7.00
2023-04-03T19:03:55.605Z,7.00
2023-04-03T19:06:21.991Z,5.33
2023-04-03T19:08:48.342Z,5.67
2023-04-03T19:11:15.532Z,5.75
2023-04-03T19:13:57.876Z,5.33
2023-04-03T19:16:28.278Z,4.33
2023-04-03T19:18:54.616Z,4.67
2023-04-03T19:21:20.916Z,3.33
2023-04-03T19:23:47.336Z,4.33
2023-04-03T19:26:17.272Z,14.00
2023-04-03T19:28:43.704Z,16.00
2023-04-03T19:31:10.238Z,14.00
2023-04-03T19:33:36.663Z,12.00
2023-04-03T19:36:03.079Z,9.33
2023-04-03T19:38:29.519Z,9.00
2023-04-03T19:40:55.926Z,12.00
2023-04-03T19:43:22.375Z,19.50
2023-04-03T19:45:48.850Z,20.00
2023-04-03T19:48:15.380Z,14.00
2023-04-03T19:50:42.742Z,15.00
2023-04-03T19:53:11.923Z,11.50
2023-04-03T19:55:38.759Z,10.50
2023-04-03T19:58:05.304Z,10.00
2023-04-03T20:00:32.552Z,9.50
2023-04-03T20:05:52.431Z,5.67
2023-04-03T20:08:18.840Z,6.67
2023-04-03T20:10:45.165Z,5.33
2023-04-03T20:13:11.545Z,8.50
2023-04-03T20:15:37.902Z,6.00
2023-04-03T20:20:47.924Z,4.00
2023-04-03T20:23:15.125Z,5.75
2023-04-03T20:25:48.567Z,4.33
2023-04-03T20:28:20.683Z,4.33
2023-04-03T20:30:47.159Z,4.33
2023-04-03T20:35:57.341Z,3.33
2023-04-03T20:38:23.697Z,3.33
2023-04-03T20:40:50.056Z,4.33
2023-04-03T20:43:16.472Z,4.00
2023-04-03T20:45:42.831Z,4.00
2023-04-03T20:51:03.322Z,2.67
2023-04-03T20:53:29.734Z,2.33
2023-04-03T20:55:56.113Z,3.00
2023-04-03T20:58:22.431Z,3.00
2023-04-03T21:00:48.831Z,3.00
2023-04-03T21:05:59.054Z,3.00
2023-04-03T21:08:25.369Z,1.67
2023-04-03T21:10:51.711Z,2.00
2023-04-03T21:13:21.988Z,3.00
2023-04-03T21:15:48.382Z,1.67
2023-04-03T21:20:58.504Z,1.67
2023-04-03T21:23:24.859Z,2.67
2023-04-03T21:25:51.180Z,3.67
2023-04-03T21:28:17.550Z,2.00
2023-04-03T21:30:44.049Z,3.00
2023-04-03T21:36:04.276Z,2.33
2023-04-03T21:38:30.622Z,3.00
2023-04-03T21:40:57.054Z,2.33
2023-04-03T21:43:23.437Z,1.33
2023-04-03T21:45:49.754Z,3.00
2023-04-03T21:51:00.185Z,2.33
2023-04-03T21:53:26.549Z,1.33
2023-04-03T21:55:52.916Z,1.67
2023-04-03T21:58:19.306Z,1.33
2023-04-03T22:00:48.490Z,0.83
2023-04-03T22:06:08.953Z,2.33
2023-04-03T22:08:35.331Z,2.00
2023-04-03T22:11:01.653Z,1.67
2023-04-03T22:13:27.979Z,1.00
2023-04-03T22:15:54.317Z,0.33
2023-04-03T22:21:04.671Z,1.33
2023-04-03T22:23:33.771Z,0.67
2023-04-03T22:26:00.319Z,1.33
2023-04-03T22:28:26.650Z,1.00
2023-04-03T22:30:53.009Z,2.00
2023-04-03T22:36:13.496Z,1.00
2023-04-03T22:38:39.948Z,1.33
2023-04-03T22:41:06.324Z,1.33
2023-04-03T22:43:35.434Z,0.83
2023-04-03T22:46:01.801Z,1.33
2023-04-03T22:51:13.120Z,2.50
2023-04-03T22:53:39.453Z,1.00
2023-04-03T22:56:05.794Z,0.33
2023-04-03T22:58:32.125Z,1.33
2023-04-03T23:00:58.508Z,1.00
2023-04-03T23:06:18.640Z,1.00
2023-04-03T23:08:47.836Z,1.00
2023-04-03T23:11:15.027Z,2.00
2023-04-03T23:13:41.392Z,0.33
2023-04-03T23:16:10.535Z,0.67
2023-04-03T23:21:23.710Z,0.83
2023-04-03T23:23:50.029Z,2.00
2023-04-03T23:26:19.152Z,0.83
2023-04-03T23:28:45.477Z,1.00
2023-04-03T23:31:11.851Z,1.00
2023-04-03T23:36:27.605Z,1.67
2023-04-03T23:38:56.745Z,0.83
2023-04-03T23:41:25.836Z,0.67
2023-04-03T23:43:52.237Z,1.33
2023-04-03T23:46:21.444Z,0.67
2023-04-03T23:48:47.781Z,0.33
2023-04-03T23:51:14.145Z,1.33
2023-04-03T23:53:43.255Z,0.67
2023-04-03T23:56:09.691Z,1.00
2023-04-03T23:58:36.017Z,0.33
